Cincinnati Municipal Airport Lunken Field
KLUK : now visible

Airfield :











YOU CAN JOIN US ON...

 
LOGIN :

Register | Disclaimer

   EN    FR    IT 

 









Legend :    VFR   Marginal VFR   IFR   Intensive IFR   Very Intensive IFR
Visi :
Ceiling :
>= 8 km
>= 3000ft
5 to 8 km
1000 to 3000 ft
1500m to 5 km
500 to 1000 ft
800 to 1500m
200 to 500 ft
< 800m
< 200 ft
Symbols :   Thunderstorms  Fog  Heavy snow  Heavy precipitations  Wind > 20 kt







- Airport Elevation : 483 ft
- IATA code : LUK


KLUK - Cincinnati Municipal Lunken Field

CURRENT METAR :
  • 212053Z 22009KT 10SM FEW070 30/16 A3015 RMK AO2 SLP206 T03000161 56018

EXPIRED METARs :
  • 211953Z 20010KT 10SM FEW065 32/17 A3017 RMK AO2 SLP211 T03170167
  • 211853Z 22008KT 10SM FEW060 31/17 A3019 RMK AO2 SLP218 T03110172

TAF KLUK
Valid from the 21 at 18:00 until the 22 at 18:00 UTC


211735Z 2118/2218 22008KT P6SM SCT080
FM220000 21005KT P6SM SCT150
FM220800 00000KT 2SM BR SCT250
FM221200 19003KT P6SM SCT250
FM221700 20010KT P6SM FEW060 SCT250
No reported NOTAMs for that airfield.



MET'MAP, your aeronautical weather chart ! - Copyright ORBIFLY December 2007 - Disclaimer

ORBIFLY MET'MAP TEAM :

Programming & Development : Alexandra Zaïnal
Concept & Development : Baudouin d'Aumeries
Co-Development & Prog : Marc-Olivier Méhu
Technical & hardware support : Manuel Goepfert

Contact : metmap@orbifly.com




SOURCES & CREDITS :

   NOAA       Earth
Advisory